Contact Us:
Email: info@sawbill.com
Phone: (218)663-7150
Fax: (218)663-7980
Mail: 4620 Sawbill Trail
Box 2129
Tofte, MN 55615


Powered by
Movable Type 3.15
 
Sawbill Weather History Archives: May 2013
Current Sawbill Weather History | « April 2013 | June 2013 »


Date

High
Temperature

Low
Temperature

Barometric
Pressure

Relative
Humidity 7AM

9 AM
Temperature

Moisture

Snow

5/31/13 73 54 30.09 78% 54 0
5/30/13 69 58 30.00 96% 60 .17"
5/29/13 73 54 30.15 98% 58 .25"
5/28/13 65 43 30.15 81% 54 0
5/27/13 65 39 30.21 57% 50 0
5/26/13 63 37 30.47 57% 39 0
5/25/13 61 32 30.65 57% 37 0
5/24/13 60 39 30.50 58% 44 0
5/23/13 57 31 30.68 66% 32 0
5/22/13 60 35 30.53 58% 35 0
5/21/13 48 43 30.24 98% 48 .77"
5/20/13 49 44 30.09 97% 44 .24"
5/19/13 60 49 30.12 98% 49 .62"
5/18/13 51 48 30.24 93% 49 .14"
5/17/13 61 44 30.36 68% 49 0
5/16/13 64 39 30.47 57% 44 0
5/15/13 68 38 30.33 62% 39 0
5/14/13 60 34 30.06 61% 50 0
5/13/13 49 31 30.03 63% 34 0
5/12/13 42 27 30.39 61% 31 0
5/11/13 38 29 30.39 50% 29 Trace Trace
5/10/13 49 28 30.21 70% 34 Trace
5/9/13 52 28 30.47 59% 28 0
5/8/13 69 37 30.38 85% 37 0
5/7/13 69 38 30.36 68% 39 0
5/6/13 64 35 30.42 77% 38 0
5/5/13 51 33 30.45 88% 38 0
5/4/13 37 32 30.50 92% 35 .3"
5/3/13 32 29 30.50 87% 32 Trace
5/2/13 37 27 30.65 58% 29 0
5/1/13 39 28 30.80 54% 28 0
 


Home I Trip Planning I Rentals and Outfitting I Reservations I Campgrounds I Sawbill Store I Sawbill News I Contact

© 1997 - 2017, Sawbill Canoe Outfitters, Inc. I Privacy Policy